createdAt,value
2023-05-12T00:05:15.859Z,1015.27
2023-05-12T00:20:15.882Z,1015.20
2023-05-12T00:35:16.006Z,1015.26
2023-05-12T00:50:16.098Z,1015.28
2023-05-12T01:05:16.209Z,1015.34
2023-05-12T01:20:16.197Z,1015.32
2023-05-12T01:35:17.458Z,1015.36
2023-05-12T01:50:18.438Z,1015.44
2023-05-12T02:05:19.671Z,1015.51
2023-05-12T02:20:19.825Z,1015.64
2023-05-12T02:35:19.683Z,1015.64
2023-05-12T02:50:19.991Z,1015.61
2023-05-12T03:05:19.795Z,1015.59
2023-05-12T03:20:20.273Z,1015.68
2023-05-12T03:35:21.044Z,1015.78
2023-05-12T03:50:21.456Z,1015.83
2023-05-12T04:05:22.391Z,1015.89
2023-05-12T04:20:22.435Z,1015.98
2023-05-12T04:35:22.717Z,1016.10
2023-05-12T04:50:22.623Z,1016.17
2023-05-12T05:05:22.921Z,1016.29
2023-05-12T05:20:27.937Z,1016.38
2023-05-12T05:35:27.828Z,1016.48
2023-05-12T05:50:29.194Z,1016.51
2023-05-12T06:05:29.306Z,1016.73
2023-05-12T06:20:29.523Z,1016.74
2023-05-12T06:35:29.719Z,1016.92
2023-05-12T06:50:29.835Z,1016.92
2023-05-12T07:05:30.896Z,1016.89
2023-05-12T07:20:31.238Z,1016.93
2023-05-12T07:35:31.343Z,1016.94
2023-05-12T07:50:31.568Z,1016.83
2023-05-12T08:05:31.632Z,1016.88
2023-05-12T08:20:32.472Z,1016.92
2023-05-12T08:35:32.506Z,1017.09
2023-05-12T08:50:32.634Z,1017.01
2023-05-12T09:05:32.605Z,1016.95
2023-05-12T09:20:32.674Z,1016.91
2023-05-12T09:35:32.808Z,1016.90
2023-05-12T09:50:44.242Z,1016.86
2023-05-12T10:05:38.272Z,1016.79
2023-05-12T10:20:38.448Z,1016.73
2023-05-12T10:35:38.707Z,1016.74
2023-05-12T10:50:38.576Z,1016.68
2023-05-12T11:05:38.945Z,1016.62
2023-05-12T11:20:38.876Z,1016.51
2023-05-12T11:35:39.006Z,1016.62
2023-05-12T11:50:39.013Z,1016.59
2023-05-12T12:05:39.627Z,1016.79
2023-05-12T12:20:39.920Z,1016.77
2023-05-12T12:35:39.879Z,1016.78
2023-05-12T12:50:40.006Z,1016.72
2023-05-12T13:05:40.024Z,1016.59
2023-05-12T13:20:40.079Z,1016.68
2023-05-12T13:35:40.319Z,1016.46
2023-05-12T13:50:40.245Z,1016.51
2023-05-12T14:05:40.435Z,1016.61
2023-05-12T14:20:40.502Z,1016.56
2023-05-12T14:35:40.633Z,1016.58
2023-05-12T14:50:40.653Z,1016.52
2023-05-12T15:05:56.559Z,1016.54
2023-05-12T15:20:46.104Z,1016.51
2023-05-12T15:35:46.218Z,1016.51
2023-05-12T15:50:46.191Z,1016.55
2023-05-12T16:05:46.307Z,1016.37
2023-05-12T16:20:46.288Z,1016.41
2023-05-12T16:35:46.383Z,1016.35
2023-05-12T16:50:46.505Z,1016.33
2023-05-12T17:05:46.587Z,1016.24
2023-05-12T17:20:46.639Z,1016.28
2023-05-12T17:35:56.534Z,1016.48
2023-05-12T17:50:51.882Z,1016.57
2023-05-12T18:05:52.063Z,1016.71
2023-05-12T18:20:52.121Z,1016.74
2023-05-12T18:35:52.144Z,1016.84
2023-05-12T18:50:52.578Z,1017.06
2023-05-12T19:05:52.361Z,1017.20
2023-05-12T19:20:52.509Z,1017.41
2023-05-12T19:35:52.600Z,1017.45
2023-05-12T19:50:52.706Z,1017.49
2023-05-12T20:05:52.751Z,1017.68
2023-05-12T20:20:52.884Z,1017.71
2023-05-12T20:35:52.943Z,1017.71
2023-05-12T20:50:53.043Z,1017.78
2023-05-12T21:05:53.043Z,1017.91
2023-05-12T21:20:53.181Z,1018.01
2023-05-12T21:35:53.169Z,1018.00
2023-05-12T21:50:53.393Z,1018.09
2023-05-12T22:05:53.392Z,1017.98
2023-05-12T22:20:53.473Z,1018.02
2023-05-12T22:35:53.578Z,1018.05
2023-05-12T22:50:53.699Z,1018.04
2023-05-12T23:05:53.732Z,1018.02
2023-05-12T23:20:53.784Z,1017.93
2023-05-12T23:35:53.899Z,1017.93
2023-05-12T23:50:53.936Z,1017.93
